• Join FlightAware (Why Join?)
  • Login
  • US Flag 
01:35PM EDT


 

Airport Tracker/Info


-or-


 

Live Flight TrackerFlight Track Log ✈ AAL297 ✈ 29-Apr-2013 ✈ KDFW - KLAX

Flight Track Log - Related Links

Times and Time Zones

All times are in EDT time to prevent confusion due to time zone crossing. See the AAL297 flight status page for this flight to view local times or setup timezone preferences in your user account.

Time Position Orientation Groundspeed Altitude Reporting Facility
EDT Latitude Longitude Course Direction KTS MPH feet Rate Location/Type
02:43PM 32.8700 -97.0520 179° South 170 196 2,400  Level FlightAware
02:43PM 32.8500 -97.0520 180° South 204 235 3,100 1,920 Climbing FlightAware
02:43PM 32.8190 -97.0530 182° South 241 277 4,200 2,880 Climbing FlightAware
02:44PM 32.7850 -97.0620 193° South 255 293 6,000 3,600 Climbing FlightAware
02:44PM 32.7720 -97.0800 229° Southwest 264 304 6,900 3,360 Climbing FlightAware
02:44PM 32.7660 -97.0920 239° Southwest 274 315 7,400 3,300 Climbing FlightAware
02:45PM 32.7620 -97.1390 264° West 287 330 9,100 2,880 Climbing FlightAware
02:46PM 32.7610 -97.2010 269° West 316 364 10,800 2,220 Climbing FlightAware
02:46PM 32.7570 -97.2860 267° West 361 415 12,300 2,520 Climbing FlightAware
02:47PM 32.7540 -97.3690 268° West 372 428 14,400 2,940 Climbing FlightAware
02:48PM 32.7500 -97.4570 267° West 383 441 16,500 2,880 Climbing FlightAware
02:48PM 32.7460 -97.5470 267° West 391 450 18,500 2,820 Climbing FlightAware
02:49PM 32.7420 -97.6350 267° West 398 458 20,300 2,520 Climbing FlightAware
02:50PM 32.7380 -97.7280 267° West 406 467 22,100 2,280 Climbing FlightAware
02:50PM 32.7340 -97.8230 267° West 418 481 23,600 2,100 Climbing FlightAware
02:51PM 32.7290 -97.9200 267° West 429 494 25,100 2,100 Climbing FlightAware
02:52PM 32.7220 -98.0220 265° West 435 501 26,600 2,160 Climbing FlightAware
02:53PM 32.7120 -98.1140 263° West 435 501 28,000 2,040 Climbing FlightAware
02:53PM 32.7010 -98.1980 261° West 436 502 29,200 1,740 Climbing FlightAware
02:54PM 32.6860 -98.3190 262° West 446 513 30,500 1,800 Climbing FlightAware
02:55PM 32.6740 -98.4160 262° West 443 510 31,900 1,860 Climbing FlightAware
02:55PM 32.6600 -98.5250 261° West 444 511 33,200 1,440 Climbing FlightAware
02:56PM 32.6480 -98.6190 261° West 453 521 34,000 1,500 Climbing FlightAware
02:57PM 32.6350 -98.7210 261° West 451 519 35,200 1,740 Climbing FlightAware
02:57PM 32.6210 -98.8270 261° West 444 511 36,500 1,620 Climbing FlightAware
02:58PM 32.6090 -98.9220 261° West 441 507 37,500 1,020 Climbing FlightAware
02:59PM 32.5960 -99.0280 262° West 429 494 38,000 300 Climbing FlightAware
03:00PM 32.5830 -99.1220 261° West 422 486 38,000  Level FlightAware
03:00PM 32.5700 -99.2220 261° West 421 484 38,000  Level FlightAware
03:01PM 32.5580 -99.3150 261° West 425 489 38,000  Level FlightAware
03:02PM 32.5460 -99.4070 261° West 425 489 38,000  Level FlightAware
03:02PM 32.5320 -99.5120 261° West 426 490 38,000  Level FlightAware
03:03PM 32.5180 -99.6120 261° West 426 490 38,000  Level FlightAware
03:04PM 32.5060 -99.7050 261° West 427 491 38,000  Level FlightAware
03:04PM 32.4930 -99.7970 261° West 428 493 38,000  Level FlightAware
03:05PM 32.4820 -99.9040 263° West 429 494 38,000  Level FlightAware
03:06PM 32.4770 -99.9940 266° West 429 494 38,000  Level FlightAware
03:07PM 32.4720 -100.0890 266° West 430 495 38,000  Level FlightAware
03:07PM 32.4670 -100.1970 267° West 431 496 38,000  Level FlightAware
03:08PM 32.4620 -100.2890 266° West 431 496 38,000  Level FlightAware
03:09PM 32.4570 -100.3850 266° West 432 497 38,000  Level FlightAware
03:09PM 32.4510 -100.4870 266° West 433 498 38,000  Level FlightAware
03:10PM 32.4460 -100.5820 266° West 434 499 38,000  Level FlightAware
03:11PM 32.4400 -100.6800 266° West 434 499 38,000  Level FlightAware
03:11PM 32.4350 -100.7620 266° West 435 501 38,000  Level FlightAware
03:12PM 32.4290 -100.8750 266° West 436 502 38,000  Level FlightAware
03:13PM 32.4230 -100.9740 266° West 437 503 38,000  Level FlightAware
03:14PM 32.4160 -101.0860 266° West 437 503 38,000  Level FlightAware
03:14PM 32.4100 -101.1890 266° West 437 503 38,000  Level FlightAware
03:15PM 32.4040 -101.2850 266° West 438 504 38,000  Level FlightAware
03:16PM 32.3970 -101.3960 266° West 438 504 38,000  Level FlightAware
03:16PM 32.3910 -101.4900 266° West 437 503 38,000  Level FlightAware
03:17PM 32.3840 -101.5850 265° West 436 502 38,000  Level FlightAware
03:18PM 32.3770 -101.6860 265° West 436 502 38,000  Level FlightAware
03:18PM 32.3700 -101.7830 265° West 435 501 38,000  Level FlightAware
03:19PM 32.3620 -101.8710 264° West 435 501 38,000  Level FlightAware
03:20PM 32.3550 -101.9510 264° West 435 501 38,000  Level FlightAware
03:21PM 32.3460 -102.0520 264° West 435 501 38,000  Level FlightAware
03:21PM 32.3390 -102.1330 264° West 435 501 38,000  Level FlightAware
03:22PM 32.3320 -102.2130 264° West 435 501 38,000  Level FlightAware
03:23PM 32.3250 -102.2940 264° West 435 501 38,000  Level FlightAware
03:23PM 32.3180 -102.3740 264° West 435 501 38,000  Level FlightAware
03:24PM 32.3090 -102.4750 264° West 435 501 38,000  Level FlightAware
03:25PM 32.3020 -102.5550 264° West 435 501 38,000  Level FlightAware
03:25PM 32.2940 -102.6360 263° West 435 501 38,000  Level FlightAware
03:26PM 32.2870 -102.7160 264° West 435 501 38,000  Level FlightAware
03:27PM 32.2800 -102.7970 264° West 435 501 38,000  Level FlightAware
03:28PM 32.2710 -102.8970 264° West 435 501 38,000  Level FlightAware
03:28PM 32.2640 -102.9780 264° West 435 501 38,000  Level FlightAware
03:29PM 32.2453 -103.2614 264° West 429 494 38,000  Level Albuquerque Center
03:30PM 32.2328 -103.4003 264° West 427 491 38,000  Level Albuquerque Center
03:31PM 32.2197 -103.5414 264° West 431 496 38,000  Level Albuquerque Center
03:32PM 32.2072 -103.6817 264° West 431 496 38,000  Level Albuquerque Center
03:33PM 32.1969 -103.8233 265° West 434 499 38,000  Level Albuquerque Center
03:34PM 32.1844 -103.9639 264° West 434 499 38,000  Level Albuquerque Center
03:35PM 32.1703 -104.1153 264° West 432 497 38,000  Level Albuquerque Center
03:36PM 32.1567 -104.2558 264° West 433 498 38,000  Level Albuquerque Center
03:37PM 32.1419 -104.4242 264° West 432 497 38,000  Level Albuquerque Center
03:38PM 32.1278 -104.5636 263° West 431 496 38,000  Level Albuquerque Center
03:39PM 32.1133 -104.7019 263° West 429 494 38,000  Level Albuquerque Center
03:40PM 32.1003 -104.8397 264° West 425 489 38,000  Level Albuquerque Center
03:41PM 32.0856 -104.9822 263° West 435 501 38,000  Level Albuquerque Center
03:42PM 32.0719 -105.1222 263° West 434 499 38,000  Level Albuquerque Center
03:44PM 32.0547 -105.2925 263° West 437 503 38,000  Level Albuquerque Center
03:49PM 31.9650 -106.1400 263° West 440 506 38,000  Level FlightAware
03:50PM 31.9540 -106.2350 262° West 441 507 38,000  Level FlightAware
03:51PM 31.9580 -106.3550 272° West 439 505 38,000  Level FlightAware
03:52PM 31.9690 -106.4490 278° West 439 505 38,000  Level FlightAware
03:52PM 31.9820 -106.5550 278° West 439 505 38,000  Level FlightAware
03:53PM 31.9930 -106.6480 278° West 439 505 38,000  Level FlightAware
03:54PM 32.0030 -106.7440 277° West 437 503 38,000  Level FlightAware
03:54PM 32.0150 -106.8500 278° West 437 503 38,000  Level FlightAware
03:55PM 32.0250 -106.9410 277° West 437 503 38,000  Level FlightAware
03:56PM 32.0340 -107.0270 277° West 437 503 38,000  Level FlightAware
03:57PM 32.0480 -107.1470 278° West 438 504 38,000  Level FlightAware
03:57PM 32.0570 -107.2280 277° West 438 504 38,000  Level FlightAware
03:58PM 32.0670 -107.3240 277° West 438 504 38,000  Level FlightAware
03:59PM 32.0760 -107.4050 277° West 438 504 38,000  Level FlightAware
03:59PM 32.0840 -107.4860 277° West 438 504 38,000  Level FlightAware
04:00PM 32.0920 -107.5670 277° West 438 504 38,000  Level FlightAware
04:01PM 32.1030 -107.6670 277° West 438 504 38,000  Level FlightAware
04:01PM 32.1110 -107.7480 277° West 438 504 38,000  Level FlightAware
04:02PM 32.1220 -107.8490 277° West 438 504 38,000  Level FlightAware
04:03PM 32.1320 -107.9500 277° West 438 504 38,000  Level FlightAware
04:03PM 32.1360 -107.9900 277° West 438 504 38,000  Level FlightAware
04:04PM 32.1450 -108.0710 277° West 438 504 38,000  Level FlightAware
04:05PM 32.1550 -108.1720 277° West 438 504 38,000  Level FlightAware
04:06PM 32.1660 -108.2730 277° West 438 504 38,000  Level FlightAware
04:06PM 32.1740 -108.3540 277° West 438 504 38,000  Level FlightAware
04:07PM 32.1830 -108.4350 278° West 438 504 38,000  Level FlightAware
04:09PM 32.2940 -108.8760 287° West 427 491 38,000  Level FlightAware
04:10PM 32.3220 -108.9630 291° West 427 491 38,000  Level FlightAware
04:10PM 32.3500 -109.0530 290° West 426 490 38,000  Level FlightAware
04:11PM 32.3820 -109.1500 291° West 426 490 38,000  Level FlightAware
04:12PM 32.4090 -109.2380 290° West 426 490 38,000  Level FlightAware
04:12PM 32.4400 -109.3370 290° West 426 490 38,000  Level FlightAware
04:13PM 32.4670 -109.4250 290° West 426 490 38,000  Level FlightAware
04:14PM 32.4940 -109.5110 290° West 426 490 38,000  Level FlightAware
04:15PM 32.5240 -109.6100 290° West 426 490 38,000  Level FlightAware
04:15PM 32.5510 -109.6960 290° West 426 490 38,000  Level FlightAware
04:16PM 32.5820 -109.7970 290° West 426 490 38,000  Level FlightAware
04:17PM 32.6080 -109.8840 290° West 425 489 38,000  Level FlightAware
04:17PM 32.6380 -109.9810 290° West 425 489 38,000  Level FlightAware
04:18PM 32.6650 -110.0700 290° West 424 488 38,000  Level FlightAware
04:19PM 32.6910 -110.1580 289° West 425 489 38,000  Level FlightAware
04:19PM 32.7180 -110.2450 290° West 425 489 38,000  Level FlightAware
04:20PM 32.7440 -110.3330 289° West 426 490 38,000  Level FlightAware
04:21PM 32.7740 -110.4330 290° West 426 490 38,000  Level FlightAware
04:22PM 32.8030 -110.5310 289° West 426 490 38,000  Level FlightAware
04:22PM 32.8290 -110.6170 290° West 427 491 38,000  Level FlightAware
04:23PM 32.8600 -110.7200 290° West 426 490 38,000  Level FlightAware
04:24PM 32.8820 -110.7960 289° West 425 489 38,000  Level FlightAware
04:24PM 32.9140 -110.9050 289° West 424 488 38,000  Level FlightAware
04:25PM 32.9380 -110.9850 290° West 424 488 38,000  Level FlightAware
04:26PM 32.9660 -111.0800 289° West 424 488 38,000  Level FlightAware
04:26PM 32.9960 -111.1830 289° West 424 488 38,000  Level FlightAware
04:27PM 33.0210 -111.2690 289° West 424 488 38,000  Level FlightAware
04:28PM 33.0490 -111.3670 289° West 425 489 38,000  Level FlightAware
04:29PM 33.0750 -111.4550 289° West 425 489 38,000  Level FlightAware
04:29PM 33.1010 -111.5450 289° West 426 490 38,000  Level FlightAware
04:30PM 33.1300 -111.6480 289° West 427 491 38,000  Level FlightAware
04:31PM 33.1550 -111.7360 289° West 428 493 38,000  Level FlightAware
04:31PM 33.1810 -111.8260 289° West 429 494 38,000  Level FlightAware
04:32PM 33.2090 -111.9250 289° West 430 495 38,000  Level FlightAware
04:33PM 33.2340 -112.0140 289° West 430 495 38,000  Level FlightAware
04:33PM 33.2630 -112.1190 288° West 430 495 38,000  Level FlightAware
04:34PM 33.2890 -112.2090 289° West 430 495 38,000  Level FlightAware
04:35PM 33.3160 -112.3070 288° West 431 496 38,000  Level FlightAware
04:36PM 33.3410 -112.3970 288° West 431 496 38,000  Level FlightAware
04:36PM 33.3660 -112.4860 289° West 431 496 38,000  Level FlightAware
04:37PM 33.3950 -112.5930 288° West 431 496 38,000  Level FlightAware
04:38PM 33.4200 -112.6820 289° West 431 496 38,000  Level FlightAware
04:38PM 33.4450 -112.7740 288° West 431 496 38,000  Level FlightAware
04:39PM 33.4650 -112.8440 289° West 430 495 38,000  Level FlightAware
04:40PM 33.4920 -112.9380 289° West 430 495 38,000  Level FlightAware
04:40PM 33.5200 -113.0340 289° West 430 495 38,000  Level FlightAware
04:41PM 33.5720 -113.1450 299° West 428 493 38,000  Level FlightAware
04:42PM 33.6060 -113.2420 293° West 428 493 38,000  Level FlightAware
04:43PM 33.6440 -113.3530 292° West 428 493 38,000  Level FlightAware
04:43PM 33.6700 -113.4280 293° West 428 493 38,000  Level FlightAware
04:44PM 33.6950 -113.5030 292° West 428 493 38,000  Level FlightAware
04:45PM 33.7200 -113.5780 292° West 428 493 38,000  Level FlightAware
04:46PM 33.7730 -113.7190 294° West 432 497 38,000  Level FlightAware
04:46PM 33.7980 -113.7940 292° West 432 497 38,000  Level FlightAware
04:47PM 33.8230 -113.8700 292° West 432 497 38,000  Level FlightAware
04:48PM 33.8540 -114.0140 285° West 436 502 38,000  Level FlightAware
04:48PM 33.8710 -114.1160 281° West 436 502 38,000  Level FlightAware
04:49PM 33.8820 -114.1910 280° West 436 502 38,000  Level FlightAware
04:50PM 33.8940 -114.2720 280° West 436 502 38,000  Level FlightAware
04:50PM 33.9080 -114.3740 279° West 436 502 38,000  Level FlightAware
04:51PM 33.9200 -114.4550 280° West 436 502 38,000  Level FlightAware
04:52PM 33.9320 -114.5370 280° West 436 502 38,000  Level FlightAware
04:52PM 33.9440 -114.6180 280° West 436 502 38,000  Level FlightAware
04:53PM 33.9560 -114.7000 280° West 436 502 38,000  Level FlightAware
04:54PM 33.9710 -114.8010 280° West 436 502 38,000  Level FlightAware
04:55PM 33.9830 -114.8830 280° West 436 502 38,000  Level FlightAware
04:55PM 33.9950 -114.9640 280° West 436 502 38,000  Level FlightAware
04:56PM 34.0070 -115.0460 280° West 436 502 38,000  Level FlightAware
04:57PM 34.0460 -115.3030 280° West 427 491 38,000 -120 Level FlightAware
04:57PM 34.0610 -115.4060 280° West 425 489 37,900 -780 Descending FlightAware
04:58PM 34.0740 -115.4980 280° West 427 491 36,900 -1,380 Descending FlightAware
04:59PM 34.0900 -115.6060 280° West 434 499 36,000 -660 Descending FlightAware
05:00PM 34.1030 -115.7000 280° West 437 503 36,000  Level FlightAware
05:00PM 34.1050 -115.8390 271° West 443 510 36,000 -60 Level FlightAware
05:01PM 34.0900 -115.9450 260° West 443 510 35,900 -1,020 Descending FlightAware
05:02PM 34.0760 -116.0440 260° West 443 510 34,600 -2,520 Descending FlightAware
05:03PM 34.0620 -116.1420 260° West 454 522 32,600 -2,940 Descending FlightAware
05:03PM 34.0440 -116.2560 259° West 459 528 30,500 -2,640 Descending FlightAware
05:04PM 34.0280 -116.3590 259° West 451 519 28,900 -2,280 Descending FlightAware
05:05PM 34.0120 -116.4610 259° West 442 509 27,300 -2,220 Descending FlightAware
05:05PM 34.0000 -116.5640 262° West 432 497 25,800 -2,280 Descending FlightAware
05:06PM 33.9920 -116.6680 265° West 421 484 24,100 -2,220 Descending FlightAware
05:07PM 33.9840 -116.7600 264° West 411 473 22,700 -2,100 Descending FlightAware
05:07PM 33.9770 -116.8500 265° West 403 464 21,300 -2,220 Descending FlightAware
05:08PM 33.9680 -116.9510 264° West 393 452 19,600 -2,280 Descending FlightAware
05:09PM 33.9610 -117.0380 264° West 385 443 18,100 -1,860 Descending FlightAware
05:10PM 33.9530 -117.1310 264° West 375 432 17,000 -900 Descending FlightAware
05:10PM 33.9460 -117.2110 264° West 385 443 16,900 -660 Descending FlightAware
05:11PM 33.9370 -117.3120 264° West 385 443 16,100 -1,500 Descending FlightAware
05:12PM 33.9350 -117.3960 268° West 385 443 14,800 -2,040 Descending FlightAware
05:12PM 33.9620 -117.4750 292° West 373 429 13,400 -2,220 Descending FlightAware
05:13PM 33.9890 -117.5470 294° West 365 420 11,900 -2,280 Descending FlightAware
05:14PM 34.0100 -117.6340 286° West 338 389 10,200 -1,200 Descending FlightAware
05:14PM 34.0050 -117.7030 265° West 283 326 10,200 -180 Level FlightAware
05:15PM 34.0000 -117.7480 262° West 262 302 10,000 -900 Descending FlightAware
05:15PM 33.9950 -117.7910 262° West 264 304 9,300 -1,440 Descending FlightAware
05:16PM 33.9920 -117.8260 264° West 262 302 8,700 -1,440 Descending FlightAware
05:16PM 33.9880 -117.8700 264° West 261 300 8,000 -1,440 Descending FlightAware
05:17PM 33.9840 -117.9080 263° West 259 298 7,400 -1,320 Descending FlightAware
05:17PM 33.9800 -117.9500 263° West 257 296 6,800 -1,320 Descending FlightAware
05:18PM 33.9760 -117.9920 263° West 256 295 6,100 -1,380 Descending FlightAware
05:18PM 33.9740 -118.0070 261° West 256 295 5,900 -1,200 Descending FlightAware
05:18PM 33.9700 -118.0500 264° West 252 290 5,300 -900 Descending FlightAware
05:19PM 33.9670 -118.0820 264° West 235 270 5,100 -780 Descending FlightAware
05:19PM 33.9630 -118.1200 263° West 231 266 4,600 -1,140 Descending FlightAware
05:20PM 33.9590 -118.1590 263° West 232 267 4,000 -1,200 Descending FlightAware
05:20PM 33.9580 -118.1720 265° West 232 267 3,800 -1,200 Descending FlightAware
05:21PM 33.9540 -118.2150 264° West 212 244 3,100 -1,140 Descending FlightAware
05:21PM 33.9510 -118.2410 262° West 198 228 2,700 -1,080 Descending FlightAware
05:21PM 33.9480 -118.2690 263° West 188 216 2,200 -960 Descending FlightAware
05:22PM 33.9450 -118.2990 263° West 167 192 1,700 -780 Descending FlightAware
05:23PM 33.9430 -118.3240 264° West 141 162 1,400 -720 Descending FlightAware
05:23PM 33.9420 -118.3380 265° West 135 155 1,100 -480 Descending FlightAware
05:23PM 33.9400 -118.3620 264° West 135 155 1,000 -240 Descending FlightAware